METAR Data
IDs: Format: Raw Decoded Include TAF

Data at: 1202 UTC 23 Jun 2021

LOWW 231150Z 01009KT 320V050 9999 FEW028 27/18 Q1017 NOSIG

TAF LOWW 231115Z 2312/2418 36008KT CAVOK TX31/2414Z TN21/2403Z
  TEMPO 2317/2404 FEW060CB
  BECMG 2319/2321 VRB04KT
  BECMG 2404/2406 33010KT
  BECMG 2411/2413 VRB04KT
  TEMPO 2416/2418 FEW060CB


LOWI 231150Z 08012KT 050V110 9999 FEW060 27/14 Q1014 NOSIG

TAF LOWI 231115Z 2312/2412 09012KT 9999 SCT060 TX29/2314Z TN16/2404Z
  TEMPO 2314/2320 SCT060 FEW060CB
  PROB40
  TEMPO 2315/2320 VRB15G30KT 4000 TSRA
  BECMG 2318/2320 27003KT
  BECMG 2409/2411 11012G22KT FEW060CB